sensor_id;sensor_type;location;lat;lon;timestamp;P1;durP1;ratioP1;P2;durP2;ratioP2
7545;SDS011;3814;51.454;12.616;2024-03-02T00:01:26;38.17;;;19.75;;
7545;SDS011;3814;51.454;12.616;2024-03-02T00:03:51;39.80;;;19.38;;
7545;SDS011;3814;51.454;12.616;2024-03-02T00:06:19;38.70;;;18.80;;
7545;SDS011;3814;51.454;12.616;2024-03-02T00:08:47;35.03;;;18.27;;
7545;SDS011;3814;51.454;12.616;2024-03-02T00:11:12;37.20;;;19.33;;
7545;SDS011;3814;51.454;12.616;2024-03-02T00:13:40;36.40;;;17.17;;
7545;SDS011;3814;51.454;12.616;2024-03-02T00:16:05;39.28;;;18.20;;
7545;SDS011;3814;51.454;12.616;2024-03-02T00:18:32;38.13;;;18.60;;
7545;SDS011;3814;51.454;12.616;2024-03-02T00:20:58;39.00;;;18.25;;
7545;SDS011;3814;51.454;12.616;2024-03-02T00:23:29;37.13;;;17.60;;
7545;SDS011;3814;51.454;12.616;2024-03-02T00:25:58;40.78;;;18.88;;
7545;SDS011;3814;51.454;12.616;2024-03-02T00:28:28;39.63;;;18.05;;
7545;SDS011;3814;51.454;12.616;2024-03-02T00:30:56;36.35;;;17.13;;
7545;SDS011;3814;51.454;12.616;2024-03-02T00:33:23;30.88;;;17.15;;
7545;SDS011;3814;51.454;12.616;2024-03-02T00:35:51;35.65;;;17.45;;
7545;SDS011;3814;51.454;12.616;2024-03-02T00:38:17;30.05;;;16.17;;
7545;SDS011;3814;51.454;12.616;2024-03-02T00:40:44;33.15;;;16.58;;
7545;SDS011;3814;51.454;12.616;2024-03-02T00:43:20;35.88;;;16.98;;
7545;SDS011;3814;51.454;12.616;2024-03-02T00:46:08;37.13;;;18.63;;
7545;SDS011;3814;51.454;12.616;2024-03-02T00:48:37;37.13;;;18.65;;
7545;SDS011;3814;51.454;12.616;2024-03-02T00:51:03;37.70;;;18.40;;
7545;SDS011;3814;51.454;12.616;2024-03-02T00:53:30;34.88;;;17.55;;
7545;SDS011;3814;51.454;12.616;2024-03-02T00:56:00;38.78;;;18.13;;
7545;SDS011;3814;51.454;12.616;2024-03-02T00:58:26;36.75;;;18.08;;
7545;SDS011;3814;51.454;12.616;2024-03-02T01:00:52;36.28;;;19.05;;
7545;SDS011;3814;51.454;12.616;2024-03-02T01:03:18;37.65;;;19.27;;
7545;SDS011;3814;51.454;12.616;2024-03-02T01:05:44;34.97;;;18.60;;
7545;SDS011;3814;51.454;12.616;2024-03-02T01:08:11;35.65;;;17.40;;
7545;SDS011;3814;51.454;12.616;2024-03-02T01:10:39;39.85;;;19.27;;
7545;SDS011;3814;51.454;12.616;2024-03-02T01:13:05;36.25;;;18.42;;
7545;SDS011;3814;51.454;12.616;2024-03-02T01:15:33;33.88;;;18.05;;
7545;SDS011;3814;51.454;12.616;2024-03-02T01:17:58;36.13;;;18.10;;
7545;SDS011;3814;51.454;12.616;2024-03-02T01:20:24;39.67;;;18.58;;
7545;SDS011;3814;51.454;12.616;2024-03-02T01:22:50;35.78;;;17.60;;
7545;SDS011;3814;51.454;12.616;2024-03-02T01:25:17;37.13;;;19.15;;
7545;SDS011;3814;51.454;12.616;2024-03-02T01:27:43;34.55;;;18.00;;
7545;SDS011;3814;51.454;12.616;2024-03-02T01:30:09;38.40;;;18.00;;
7545;SDS011;3814;51.454;12.616;2024-03-02T01:32:37;34.90;;;18.98;;
7545;SDS011;3814;51.454;12.616;2024-03-02T01:35:04;37.50;;;18.05;;
7545;SDS011;3814;51.454;12.616;2024-03-02T01:37:30;34.08;;;16.83;;
7545;SDS011;3814;51.454;12.616;2024-03-02T01:39:56;36.03;;;18.15;;
7545;SDS011;3814;51.454;12.616;2024-03-02T01:42:24;33.22;;;15.98;;
7545;SDS011;3814;51.454;12.616;2024-03-02T01:44:51;36.38;;;18.35;;
7545;SDS011;3814;51.454;12.616;2024-03-02T01:47:17;36.90;;;18.88;;
7545;SDS011;3814;51.454;12.616;2024-03-02T01:49:43;38.50;;;18.50;;
7545;SDS011;3814;51.454;12.616;2024-03-02T01:52:10;38.90;;;18.55;;
7545;SDS011;3814;51.454;12.616;2024-03-02T01:54:36;38.10;;;18.00;;
7545;SDS011;3814;51.454;12.616;2024-03-02T01:57:02;37.70;;;18.50;;
7545;SDS011;3814;51.454;12.616;2024-03-02T01:59:28;35.35;;;17.17;;
7545;SDS011;3814;51.454;12.616;2024-03-02T02:01:54;36.63;;;20.00;;
7545;SDS011;3814;51.454;12.616;2024-03-02T02:04:19;40.15;;;19.13;;
7545;SDS011;3814;51.454;12.616;2024-03-02T02:06:52;32.75;;;17.10;;
7545;SDS011;3814;51.454;12.616;2024-03-02T02:09:18;39.22;;;18.90;;
7545;SDS011;3814;51.454;12.616;2024-03-02T02:11:44;37.97;;;17.42;;
7545;SDS011;3814;51.454;12.616;2024-03-02T02:14:10;31.38;;;17.02;;
7545;SDS011;3814;51.454;12.616;2024-03-02T02:16:36;35.60;;;17.02;;
7545;SDS011;3814;51.454;12.616;2024-03-02T02:19:02;34.60;;;16.65;;
7545;SDS011;3814;51.454;12.616;2024-03-02T02:21:28;33.22;;;16.90;;
7545;SDS011;3814;51.454;12.616;2024-03-02T02:23:53;40.40;;;18.42;;
7545;SDS011;3814;51.454;12.616;2024-03-02T02:26:19;33.85;;;17.23;;
7545;SDS011;3814;51.454;12.616;2024-03-02T02:28:46;36.33;;;17.40;;
7545;SDS011;3814;51.454;12.616;2024-03-02T02:31:13;32.00;;;15.82;;
7545;SDS011;3814;51.454;12.616;2024-03-02T02:33:39;33.17;;;16.00;;
7545;SDS011;3814;51.454;12.616;2024-03-02T02:36:05;31.85;;;14.95;;
7545;SDS011;3814;51.454;12.616;2024-03-02T02:38:32;30.60;;;15.80;;
7545;SDS011;3814;51.454;12.616;2024-03-02T02:40:58;34.35;;;15.57;;
7545;SDS011;3814;51.454;12.616;2024-03-02T02:43:24;31.52;;;15.00;;
7545;SDS011;3814;51.454;12.616;2024-03-02T02:45:50;33.30;;;15.35;;
7545;SDS011;3814;51.454;12.616;2024-03-02T02:48:15;31.25;;;15.27;;
7545;SDS011;3814;51.454;12.616;2024-03-02T02:50:41;29.83;;;14.52;;
7545;SDS011;3814;51.454;12.616;2024-03-02T02:53:06;26.67;;;14.23;;
7545;SDS011;3814;51.454;12.616;2024-03-02T02:55:34;29.63;;;14.50;;
7545;SDS011;3814;51.454;12.616;2024-03-02T02:58:00;26.98;;;13.48;;
7545;SDS011;3814;51.454;12.616;2024-03-02T03:00:25;30.63;;;14.38;;
7545;SDS011;3814;51.454;12.616;2024-03-02T03:02:51;29.27;;;15.38;;
7545;SDS011;3814;51.454;12.616;2024-03-02T03:05:17;29.23;;;14.98;;
7545;SDS011;3814;51.454;12.616;2024-03-02T03:07:44;28.17;;;14.95;;
7545;SDS011;3814;51.454;12.616;2024-03-02T03:10:10;31.10;;;15.48;;
7545;SDS011;3814;51.454;12.616;2024-03-02T03:12:36;28.85;;;15.23;;
7545;SDS011;3814;51.454;12.616;2024-03-02T03:15:02;27.77;;;13.35;;
7545;SDS011;3814;51.454;12.616;2024-03-02T03:17:29;25.27;;;13.35;;
7545;SDS011;3814;51.454;12.616;2024-03-02T03:19:55;26.48;;;12.52;;
7545;SDS011;3814;51.454;12.616;2024-03-02T03:22:22;29.23;;;14.48;;
7545;SDS011;3814;51.454;12.616;2024-03-02T03:24:47;28.17;;;15.45;;
7545;SDS011;3814;51.454;12.616;2024-03-02T03:27:13;30.75;;;13.82;;
7545;SDS011;3814;51.454;12.616;2024-03-02T03:29:38;29.77;;;14.07;;
7545;SDS011;3814;51.454;12.616;2024-03-02T03:32:04;29.88;;;13.52;;
7545;SDS011;3814;51.454;12.616;2024-03-02T03:34:32;31.40;;;14.07;;
7545;SDS011;3814;51.454;12.616;2024-03-02T03:36:59;31.13;;;15.20;;
7545;SDS011;3814;51.454;12.616;2024-03-02T03:39:25;29.88;;;14.63;;
7545;SDS011;3814;51.454;12.616;2024-03-02T03:41:54;27.40;;;13.93;;
7545;SDS011;3814;51.454;12.616;2024-03-02T03:44:21;28.13;;;13.57;;
7545;SDS011;3814;51.454;12.616;2024-03-02T03:46:47;31.85;;;14.85;;
7545;SDS011;3814;51.454;12.616;2024-03-02T03:49:13;27.50;;;13.63;;
7545;SDS011;3814;51.454;12.616;2024-03-02T03:51:43;23.73;;;12.98;;
7545;SDS011;3814;51.454;12.616;2024-03-02T03:54:12;27.35;;;13.27;;
7545;SDS011;3814;51.454;12.616;2024-03-02T03:56:38;29.23;;;12.52;;
7545;SDS011;3814;51.454;12.616;2024-03-02T03:59:05;29.75;;;13.90;;
7545;SDS011;3814;51.454;12.616;2024-03-02T04:01:33;29.70;;;14.38;;
7545;SDS011;3814;51.454;12.616;2024-03-02T04:03:59;28.77;;;14.65;;
7545;SDS011;3814;51.454;12.616;2024-03-02T04:06:24;29.35;;;14.10;;
7545;SDS011;3814;51.454;12.616;2024-03-02T04:08:52;26.33;;;13.40;;
7545;SDS011;3814;51.454;12.616;2024-03-02T04:11:18;28.38;;;14.15;;
7545;SDS011;3814;51.454;12.616;2024-03-02T04:13:44;25.92;;;13.60;;
7545;SDS011;3814;51.454;12.616;2024-03-02T04:16:09;26.92;;;14.05;;
7545;SDS011;3814;51.454;12.616;2024-03-02T04:18:35;27.85;;;12.98;;
7545;SDS011;3814;51.454;12.616;2024-03-02T04:21:01;27.02;;;13.95;;
7545;SDS011;3814;51.454;12.616;2024-03-02T04:23:26;31.35;;;15.25;;
7545;SDS011;3814;51.454;12.616;2024-03-02T04:25:54;30.38;;;14.25;;
7545;SDS011;3814;51.454;12.616;2024-03-02T04:28:19;30.45;;;14.25;;
7545;SDS011;3814;51.454;12.616;2024-03-02T04:30:48;28.67;;;13.90;;
7545;SDS011;3814;51.454;12.616;2024-03-02T04:33:19;27.63;;;13.65;;
7545;SDS011;3814;51.454;12.616;2024-03-02T04:35:48;26.80;;;13.80;;
7545;SDS011;3814;51.454;12.616;2024-03-02T04:38:23;25.95;;;13.50;;
7545;SDS011;3814;51.454;12.616;2024-03-02T04:40:49;25.05;;;13.52;;
7545;SDS011;3814;51.454;12.616;2024-03-02T04:43:16;26.88;;;13.23;;
7545;SDS011;3814;51.454;12.616;2024-03-02T04:45:42;30.30;;;15.00;;
7545;SDS011;3814;51.454;12.616;2024-03-02T04:48:17;28.40;;;13.82;;
7545;SDS011;3814;51.454;12.616;2024-03-02T04:50:47;30.00;;;14.75;;
7545;SDS011;3814;51.454;12.616;2024-03-02T04:53:13;30.05;;;14.05;;
7545;SDS011;3814;51.454;12.616;2024-03-02T04:55:39;27.73;;;14.02;;
7545;SDS011;3814;51.454;12.616;2024-03-02T04:58:05;27.50;;;13.77;;
7545;SDS011;3814;51.454;12.616;2024-03-02T05:00:31;29.08;;;13.57;;
7545;SDS011;3814;51.454;12.616;2024-03-02T05:02:58;24.33;;;13.30;;
7545;SDS011;3814;51.454;12.616;2024-03-02T05:05:25;25.35;;;13.35;;
7545;SDS011;3814;51.454;12.616;2024-03-02T05:07:51;28.58;;;14.25;;
7545;SDS011;3814;51.454;12.616;2024-03-02T05:10:20;25.83;;;12.60;;
7545;SDS011;3814;51.454;12.616;2024-03-02T05:13:06;24.25;;;12.52;;
7545;SDS011;3814;51.454;12.616;2024-03-02T05:15:33;28.48;;;13.05;;
7545;SDS011;3814;51.454;12.616;2024-03-02T05:18:07;22.45;;;11.80;;
7545;SDS011;3814;51.454;12.616;2024-03-02T05:20:34;30.48;;;13.07;;
7545;SDS011;3814;51.454;12.616;2024-03-02T05:23:02;26.33;;;13.23;;
7545;SDS011;3814;51.454;12.616;2024-03-02T05:25:36;30.67;;;14.25;;
7545;SDS011;3814;51.454;12.616;2024-03-02T05:28:03;24.33;;;11.27;;
7545;SDS011;3814;51.454;12.616;2024-03-02T05:30:30;27.08;;;13.00;;
7545;SDS011;3814;51.454;12.616;2024-03-02T05:32:57;29.05;;;13.23;;
7545;SDS011;3814;51.454;12.616;2024-03-02T05:35:27;32.65;;;13.95;;
7545;SDS011;3814;51.454;12.616;2024-03-02T05:37:53;24.67;;;12.30;;
7545;SDS011;3814;51.454;12.616;2024-03-02T05:40:21;26.02;;;11.73;;
7545;SDS011;3814;51.454;12.616;2024-03-02T05:42:47;29.02;;;13.57;;
7545;SDS011;3814;51.454;12.616;2024-03-02T05:45:13;27.48;;;13.55;;
7545;SDS011;3814;51.454;12.616;2024-03-02T05:47:41;25.80;;;12.70;;
7545;SDS011;3814;51.454;12.616;2024-03-02T05:50:08;28.70;;;13.05;;
7545;SDS011;3814;51.454;12.616;2024-03-02T05:52:35;29.02;;;13.43;;
7545;SDS011;3814;51.454;12.616;2024-03-02T05:55:03;29.30;;;13.95;;
7545;SDS011;3814;51.454;12.616;2024-03-02T05:57:30;25.55;;;12.38;;
7545;SDS011;3814;51.454;12.616;2024-03-02T06:00:20;30.08;;;13.68;;
7545;SDS011;3814;51.454;12.616;2024-03-02T06:02:47;28.27;;;13.32;;
7545;SDS011;3814;51.454;12.616;2024-03-02T06:05:13;32.10;;;15.15;;
7545;SDS011;3814;51.454;12.616;2024-03-02T06:07:38;33.05;;;14.93;;
7545;SDS011;3814;51.454;12.616;2024-03-02T06:10:06;30.70;;;15.23;;
7545;SDS011;3814;51.454;12.616;2024-03-02T06:12:35;32.75;;;14.50;;
7545;SDS011;3814;51.454;12.616;2024-03-02T06:15:02;32.72;;;15.15;;
7545;SDS011;3814;51.454;12.616;2024-03-02T06:17:28;29.83;;;13.25;;
7545;SDS011;3814;51.454;12.616;2024-03-02T06:19:55;29.67;;;13.30;;
7545;SDS011;3814;51.454;12.616;2024-03-02T06:22:21;28.80;;;13.88;;
7545;SDS011;3814;51.454;12.616;2024-03-02T06:24:51;24.42;;;13.88;;
7545;SDS011;3814;51.454;12.616;2024-03-02T06:27:17;29.38;;;13.77;;
7545;SDS011;3814;51.454;12.616;2024-03-02T06:29:44;28.65;;;13.13;;
7545;SDS011;3814;51.454;12.616;2024-03-02T06:32:09;31.85;;;14.40;;
7545;SDS011;3814;51.454;12.616;2024-03-02T06:34:36;32.95;;;14.32;;
7545;SDS011;3814;51.454;12.616;2024-03-02T06:37:01;33.65;;;14.48;;
7545;SDS011;3814;51.454;12.616;2024-03-02T06:39:27;29.10;;;13.82;;
7545;SDS011;3814;51.454;12.616;2024-03-02T06:41:53;34.28;;;15.35;;
7545;SDS011;3814;51.454;12.616;2024-03-02T06:44:18;34.50;;;15.40;;
7545;SDS011;3814;51.454;12.616;2024-03-02T06:46:44;30.52;;;14.52;;
7545;SDS011;3814;51.454;12.616;2024-03-02T06:49:09;33.97;;;15.07;;
7545;SDS011;3814;51.454;12.616;2024-03-02T06:51:35;30.90;;;13.30;;
7545;SDS011;3814;51.454;12.616;2024-03-02T06:54:01;31.13;;;14.82;;
7545;SDS011;3814;51.454;12.616;2024-03-02T06:56:27;32.30;;;13.75;;
7545;SDS011;3814;51.454;12.616;2024-03-02T06:58:53;30.70;;;14.50;;
7545;SDS011;3814;51.454;12.616;2024-03-02T07:01:18;35.35;;;15.73;;
7545;SDS011;3814;51.454;12.616;2024-03-02T07:03:45;30.92;;;13.80;;
7545;SDS011;3814;51.454;12.616;2024-03-02T07:06:10;32.70;;;14.57;;
7545;SDS011;3814;51.454;12.616;2024-03-02T07:08:36;33.80;;;15.37;;
7545;SDS011;3814;51.454;12.616;2024-03-02T07:11:01;36.83;;;16.13;;
7545;SDS011;3814;51.454;12.616;2024-03-02T07:13:26;37.13;;;15.23;;
7545;SDS011;3814;51.454;12.616;2024-03-02T07:15:52;36.97;;;15.52;;
7545;SDS011;3814;51.454;12.616;2024-03-02T07:18:32;35.30;;;15.88;;
7545;SDS011;3814;51.454;12.616;2024-03-02T07:21:05;34.28;;;15.32;;
7545;SDS011;3814;51.454;12.616;2024-03-02T07:23:31;32.65;;;15.88;;
7545;SDS011;3814;51.454;12.616;2024-03-02T07:25:57;37.13;;;15.88;;
7545;SDS011;3814;51.454;12.616;2024-03-02T07:28:24;35.53;;;16.30;;
7545;SDS011;3814;51.454;12.616;2024-03-02T07:30:59;31.35;;;14.80;;
7545;SDS011;3814;51.454;12.616;2024-03-02T07:33:29;35.30;;;15.88;;
7545;SDS011;3814;51.454;12.616;2024-03-02T07:35:54;38.90;;;16.33;;
7545;SDS011;3814;51.454;12.616;2024-03-02T07:38:20;35.92;;;15.55;;
7545;SDS011;3814;51.454;12.616;2024-03-02T07:40:46;32.63;;;15.70;;
7545;SDS011;3814;51.454;12.616;2024-03-02T07:43:11;35.72;;;15.43;;
7545;SDS011;3814;51.454;12.616;2024-03-02T07:45:36;36.40;;;17.00;;
7545;SDS011;3814;51.454;12.616;2024-03-02T07:48:02;36.27;;;15.53;;
7545;SDS011;3814;51.454;12.616;2024-03-02T07:50:29;33.40;;;15.82;;
7545;SDS011;3814;51.454;12.616;2024-03-02T07:52:55;36.00;;;15.95;;
7545;SDS011;3814;51.454;12.616;2024-03-02T07:55:20;33.87;;;16.20;;
7545;SDS011;3814;51.454;12.616;2024-03-02T07:57:45;36.57;;;15.10;;
7545;SDS011;3814;51.454;12.616;2024-03-02T08:00:11;30.23;;;14.90;;
7545;SDS011;3814;51.454;12.616;2024-03-02T08:02:36;36.20;;;15.52;;
7545;SDS011;3814;51.454;12.616;2024-03-02T08:05:02;30.97;;;14.73;;
7545;SDS011;3814;51.454;12.616;2024-03-02T08:07:27;34.50;;;15.83;;
7545;SDS011;3814;51.454;12.616;2024-03-02T08:09:52;32.20;;;15.00;;
7545;SDS011;3814;51.454;12.616;2024-03-02T08:12:17;28.20;;;13.07;;
7545;SDS011;3814;51.454;12.616;2024-03-02T08:14:44;33.90;;;14.73;;
7545;SDS011;3814;51.454;12.616;2024-03-02T08:17:10;26.83;;;13.10;;
7545;SDS011;3814;51.454;12.616;2024-03-02T08:19:36;33.05;;;14.32;;
7545;SDS011;3814;51.454;12.616;2024-03-02T08:22:02;32.42;;;14.10;;
7545;SDS011;3814;51.454;12.616;2024-03-02T08:24:27;29.13;;;14.13;;
7545;SDS011;3814;51.454;12.616;2024-03-02T08:26:52;32.10;;;15.00;;
7545;SDS011;3814;51.454;12.616;2024-03-02T08:29:18;30.15;;;14.68;;
7545;SDS011;3814;51.454;12.616;2024-03-02T08:31:43;31.50;;;13.90;;
7545;SDS011;3814;51.454;12.616;2024-03-02T08:34:08;30.40;;;13.57;;
7545;SDS011;3814;51.454;12.616;2024-03-02T08:36:34;28.75;;;14.63;;
7545;SDS011;3814;51.454;12.616;2024-03-02T08:38:59;28.63;;;12.75;;
7545;SDS011;3814;51.454;12.616;2024-03-02T08:41:24;27.63;;;12.77;;
7545;SDS011;3814;51.454;12.616;2024-03-02T08:43:50;26.33;;;12.40;;
7545;SDS011;3814;51.454;12.616;2024-03-02T08:46:15;30.30;;;14.33;;
7545;SDS011;3814;51.454;12.616;2024-03-02T08:48:40;26.87;;;12.23;;
7545;SDS011;3814;51.454;12.616;2024-03-02T08:51:06;25.87;;;12.23;;
7545;SDS011;3814;51.454;12.616;2024-03-02T08:53:32;25.30;;;13.48;;
7545;SDS011;3814;51.454;12.616;2024-03-02T08:55:58;27.08;;;12.63;;
7545;SDS011;3814;51.454;12.616;2024-03-02T08:58:23;24.17;;;13.00;;
7545;SDS011;3814;51.454;12.616;2024-03-02T09:00:49;28.37;;;13.03;;
7545;SDS011;3814;51.454;12.616;2024-03-02T09:03:14;32.33;;;14.23;;
7545;SDS011;3814;51.454;12.616;2024-03-02T09:05:41;26.38;;;12.73;;
7545;SDS011;3814;51.454;12.616;2024-03-02T09:08:07;29.60;;;13.77;;
7545;SDS011;3814;51.454;12.616;2024-03-02T09:10:33;28.02;;;12.85;;
7545;SDS011;3814;51.454;12.616;2024-03-02T09:12:58;30.83;;;13.40;;
7545;SDS011;3814;51.454;12.616;2024-03-02T09:15:23;31.30;;;14.97;;
7545;SDS011;3814;51.454;12.616;2024-03-02T09:17:49;27.70;;;13.40;;
7545;SDS011;3814;51.454;12.616;2024-03-02T09:20:16;29.63;;;14.03;;
7545;SDS011;3814;51.454;12.616;2024-03-02T09:22:41;28.60;;;12.90;;
7545;SDS011;3814;51.454;12.616;2024-03-02T09:25:07;27.00;;;12.52;;
7545;SDS011;3814;51.454;12.616;2024-03-02T09:27:35;28.67;;;12.55;;
7545;SDS011;3814;51.454;12.616;2024-03-02T09:30:01;26.15;;;12.88;;
7545;SDS011;3814;51.454;12.616;2024-03-02T09:32:27;32.65;;;13.93;;
7545;SDS011;3814;51.454;12.616;2024-03-02T09:34:52;27.20;;;13.80;;
7545;SDS011;3814;51.454;12.616;2024-03-02T09:37:18;28.88;;;13.18;;
7545;SDS011;3814;51.454;12.616;2024-03-02T09:39:43;26.03;;;12.83;;
7545;SDS011;3814;51.454;12.616;2024-03-02T09:42:10;33.15;;;14.98;;
7545;SDS011;3814;51.454;12.616;2024-03-02T09:44:36;28.60;;;13.60;;
7545;SDS011;3814;51.454;12.616;2024-03-02T09:47:02;26.48;;;12.90;;
7545;SDS011;3814;51.454;12.616;2024-03-02T09:49:28;28.17;;;12.68;;
7545;SDS011;3814;51.454;12.616;2024-03-02T09:51:53;29.37;;;13.73;;
7545;SDS011;3814;51.454;12.616;2024-03-02T09:54:18;27.08;;;12.13;;
7545;SDS011;3814;51.454;12.616;2024-03-02T09:56:47;26.08;;;12.45;;
7545;SDS011;3814;51.454;12.616;2024-03-02T09:59:14;25.77;;;12.55;;
7545;SDS011;3814;51.454;12.616;2024-03-02T10:01:55;26.13;;;11.93;;
7545;SDS011;3814;51.454;12.616;2024-03-02T10:04:27;30.30;;;13.27;;
7545;SDS011;3814;51.454;12.616;2024-03-02T10:07:15;25.42;;;12.55;;
7545;SDS011;3814;51.454;12.616;2024-03-02T10:09:42;24.70;;;11.43;;
7545;SDS011;3814;51.454;12.616;2024-03-02T10:12:11;26.15;;;13.60;;
7545;SDS011;3814;51.454;12.616;2024-03-02T10:14:38;25.80;;;12.80;;
7545;SDS011;3814;51.454;12.616;2024-03-02T10:17:07;25.25;;;12.45;;
7545;SDS011;3814;51.454;12.616;2024-03-02T10:19:37;25.63;;;11.90;;
7545;SDS011;3814;51.454;12.616;2024-03-02T10:22:16;23.38;;;11.45;;
7545;SDS011;3814;51.454;12.616;2024-03-02T10:24:51;22.83;;;12.65;;
7545;SDS011;3814;51.454;12.616;2024-03-02T10:27:26;26.33;;;13.07;;
7545;SDS011;3814;51.454;12.616;2024-03-02T10:29:52;26.00;;;12.35;;
7545;SDS011;3814;51.454;12.616;2024-03-02T10:32:17;23.77;;;11.90;;
7545;SDS011;3814;51.454;12.616;2024-03-02T10:34:44;32.90;;;13.90;;
7545;SDS011;3814;51.454;12.616;2024-03-02T10:37:10;20.60;;;11.50;;
7545;SDS011;3814;51.454;12.616;2024-03-02T10:39:36;26.70;;;12.65;;
7545;SDS011;3814;51.454;12.616;2024-03-02T10:42:05;22.98;;;12.30;;
7545;SDS011;3814;51.454;12.616;2024-03-02T10:44:31;27.15;;;11.73;;
7545;SDS011;3814;51.454;12.616;2024-03-02T10:46:58;24.50;;;11.95;;
7545;SDS011;3814;51.454;12.616;2024-03-02T10:49:25;25.65;;;11.55;;
7545;SDS011;3814;51.454;12.616;2024-03-02T10:51:51;24.73;;;11.52;;
7545;SDS011;3814;51.454;12.616;2024-03-02T10:54:17;23.42;;;12.15;;
7545;SDS011;3814;51.454;12.616;2024-03-02T10:56:44;19.85;;;10.05;;
7545;SDS011;3814;51.454;12.616;2024-03-02T10:59:31;19.00;;;9.52;;
7545;SDS011;3814;51.454;12.616;2024-03-02T11:01:59;15.85;;;8.65;;
7545;SDS011;3814;51.454;12.616;2024-03-02T11:04:26;14.90;;;8.10;;
7545;SDS011;3814;51.454;12.616;2024-03-02T11:06:52;15.15;;;7.35;;
7545;SDS011;3814;51.454;12.616;2024-03-02T11:09:18;14.52;;;7.47;;
7545;SDS011;3814;51.454;12.616;2024-03-02T11:11:45;17.70;;;8.40;;
7545;SDS011;3814;51.454;12.616;2024-03-02T11:14:30;16.25;;;7.93;;
7545;SDS011;3814;51.454;12.616;2024-03-02T11:16:58;15.88;;;7.40;;
7545;SDS011;3814;51.454;12.616;2024-03-02T11:19:23;12.80;;;7.25;;
7545;SDS011;3814;51.454;12.616;2024-03-02T11:21:49;13.75;;;6.82;;
7545;SDS011;3814;51.454;12.616;2024-03-02T11:26:46;11.48;;;6.72;;
7545;SDS011;3814;51.454;12.616;2024-03-02T11:29:42;12.80;;;6.55;;
7545;SDS011;3814;51.454;12.616;2024-03-02T11:32:00;14.57;;;7.07;;
7545;SDS011;3814;51.454;12.616;2024-03-02T11:34:32;12.65;;;6.30;;
7545;SDS011;3814;51.454;12.616;2024-03-02T11:36:58;12.90;;;6.88;;
7545;SDS011;3814;51.454;12.616;2024-03-02T11:39:24;11.50;;;5.77;;
7545;SDS011;3814;51.454;12.616;2024-03-02T11:41:50;13.13;;;6.38;;
7545;SDS011;3814;51.454;12.616;2024-03-02T11:44:16;11.93;;;5.85;;
7545;SDS011;3814;51.454;12.616;2024-03-02T11:46:41;10.48;;;5.53;;
7545;SDS011;3814;51.454;12.616;2024-03-02T11:49:06;11.93;;;6.77;;
7545;SDS011;3814;51.454;12.616;2024-03-02T11:51:35;11.17;;;6.53;;
7545;SDS011;3814;51.454;12.616;2024-03-02T11:54:00;12.60;;;6.80;;
7545;SDS011;3814;51.454;12.616;2024-03-02T11:56:26;14.75;;;7.40;;
7545;SDS011;3814;51.454;12.616;2024-03-02T11:58:53;12.00;;;6.43;;
7545;SDS011;3814;51.454;12.616;2024-03-02T12:01:18;12.05;;;6.63;;
7545;SDS011;3814;51.454;12.616;2024-03-02T12:03:44;12.68;;;7.30;;
7545;SDS011;3814;51.454;12.616;2024-03-02T12:06:10;12.90;;;6.97;;
7545;SDS011;3814;51.454;12.616;2024-03-02T12:08:38;12.25;;;7.10;;
7545;SDS011;3814;51.454;12.616;2024-03-02T12:11:03;12.33;;;6.73;;
7545;SDS011;3814;51.454;12.616;2024-03-02T12:13:28;12.73;;;6.87;;
7545;SDS011;3814;51.454;12.616;2024-03-02T12:15:54;13.03;;;6.73;;
7545;SDS011;3814;51.454;12.616;2024-03-02T12:18:21;13.85;;;7.22;;
7545;SDS011;3814;51.454;12.616;2024-03-02T12:20:46;13.47;;;7.07;;
7545;SDS011;3814;51.454;12.616;2024-03-02T12:23:13;13.43;;;6.88;;
7545;SDS011;3814;51.454;12.616;2024-03-02T12:25:39;11.03;;;6.60;;
7545;SDS011;3814;51.454;12.616;2024-03-02T12:28:05;14.00;;;7.10;;
7545;SDS011;3814;51.454;12.616;2024-03-02T12:30:30;11.88;;;6.60;;
7545;SDS011;3814;51.454;12.616;2024-03-02T12:32:56;14.77;;;7.30;;
7545;SDS011;3814;51.454;12.616;2024-03-02T12:35:21;14.17;;;7.13;;
7545;SDS011;3814;51.454;12.616;2024-03-02T12:37:52;13.25;;;7.35;;
7545;SDS011;3814;51.454;12.616;2024-03-02T12:40:18;13.18;;;7.18;;
7545;SDS011;3814;51.454;12.616;2024-03-02T12:42:45;11.55;;;6.72;;
7545;SDS011;3814;51.454;12.616;2024-03-02T12:45:11;13.27;;;7.00;;
7545;SDS011;3814;51.454;12.616;2024-03-02T12:47:36;12.93;;;6.72;;
7545;SDS011;3814;51.454;12.616;2024-03-02T12:50:03;12.25;;;6.95;;
7545;SDS011;3814;51.454;12.616;2024-03-02T12:52:29;14.80;;;7.70;;
7545;SDS011;3814;51.454;12.616;2024-03-02T12:54:54;13.05;;;7.53;;
7545;SDS011;3814;51.454;12.616;2024-03-02T12:57:26;12.75;;;6.38;;
7545;SDS011;3814;51.454;12.616;2024-03-02T12:59:54;12.70;;;6.88;;
7545;SDS011;3814;51.454;12.616;2024-03-02T13:02:27;12.30;;;7.07;;
7545;SDS011;3814;51.454;12.616;2024-03-02T13:04:53;11.68;;;6.30;;
7545;SDS011;3814;51.454;12.616;2024-03-02T13:07:19;12.50;;;7.03;;
7545;SDS011;3814;51.454;12.616;2024-03-02T13:09:46;11.55;;;6.72;;
7545;SDS011;3814;51.454;12.616;2024-03-02T13:12:11;12.17;;;6.77;;
7545;SDS011;3814;51.454;12.616;2024-03-02T13:14:37;12.30;;;6.10;;
7545;SDS011;3814;51.454;12.616;2024-03-02T13:17:02;13.43;;;6.43;;
7545;SDS011;3814;51.454;12.616;2024-03-02T13:19:30;10.52;;;5.60;;
7545;SDS011;3814;51.454;12.616;2024-03-02T13:21:56;10.75;;;6.00;;
7545;SDS011;3814;51.454;12.616;2024-03-02T13:24:22;11.98;;;5.63;;
7545;SDS011;3814;51.454;12.616;2024-03-02T13:26:50;7.82;;;4.68;;
7545;SDS011;3814;51.454;12.616;2024-03-02T13:29:20;9.40;;;5.20;;
7545;SDS011;3814;51.454;12.616;2024-03-02T13:31:46;8.32;;;4.18;;
7545;SDS011;3814;51.454;12.616;2024-03-02T13:34:11;8.80;;;5.33;;
7545;SDS011;3814;51.454;12.616;2024-03-02T13:36:37;9.50;;;5.80;;
7545;SDS011;3814;51.454;12.616;2024-03-02T13:39:03;11.32;;;5.20;;
7545;SDS011;3814;51.454;12.616;2024-03-02T13:41:30;9.77;;;5.28;;
7545;SDS011;3814;51.454;12.616;2024-03-02T13:43:55;9.40;;;5.20;;
7545;SDS011;3814;51.454;12.616;2024-03-02T13:46:21;7.50;;;4.97;;
7545;SDS011;3814;51.454;12.616;2024-03-02T13:48:46;9.13;;;4.60;;
7545;SDS011;3814;51.454;12.616;2024-03-02T13:51:12;8.70;;;4.27;;
7545;SDS011;3814;51.454;12.616;2024-03-02T13:53:37;5.93;;;3.27;;
7545;SDS011;3814;51.454;12.616;2024-03-02T13:56:02;6.40;;;3.93;;
7545;SDS011;3814;51.454;12.616;2024-03-02T13:58:28;5.97;;;3.20;;
7545;SDS011;3814;51.454;12.616;2024-03-02T14:00:53;6.93;;;3.47;;
7545;SDS011;3814;51.454;12.616;2024-03-02T14:03:19;6.10;;;3.28;;
7545;SDS011;3814;51.454;12.616;2024-03-02T14:05:44;5.93;;;3.23;;
7545;SDS011;3814;51.454;12.616;2024-03-02T14:08:11;5.40;;;3.38;;
7545;SDS011;3814;51.454;12.616;2024-03-02T14:10:36;5.87;;;3.03;;
7545;SDS011;3814;51.454;12.616;2024-03-02T14:13:01;6.13;;;3.40;;
7545;SDS011;3814;51.454;12.616;2024-03-02T14:15:27;8.23;;;5.17;;
7545;SDS011;3814;51.454;12.616;2024-03-02T14:17:54;6.70;;;3.72;;
7545;SDS011;3814;51.454;12.616;2024-03-02T14:20:20;7.80;;;4.00;;
7545;SDS011;3814;51.454;12.616;2024-03-02T14:22:47;5.65;;;3.50;;
7545;SDS011;3814;51.454;12.616;2024-03-02T14:25:13;7.25;;;4.22;;
7545;SDS011;3814;51.454;12.616;2024-03-02T14:27:38;12.03;;;5.60;;
7545;SDS011;3814;51.454;12.616;2024-03-02T14:30:03;10.87;;;6.10;;
7545;SDS011;3814;51.454;12.616;2024-03-02T14:32:30;12.43;;;6.65;;
7545;SDS011;3814;51.454;12.616;2024-03-02T14:34:55;10.57;;;6.40;;
7545;SDS011;3814;51.454;12.616;2024-03-02T14:37:20;9.87;;;6.37;;
7545;SDS011;3814;51.454;12.616;2024-03-02T14:39:46;10.57;;;6.53;;